sensor_id;sensor_type;location;lat;lon;timestamp;temperature;humidity
30053;DHT22;17074;52.478;13.534;2022-07-22T00:00:51;22.10;99.90
30053;DHT22;17074;52.478;13.534;2022-07-22T00:03:17;22.10;99.90
30053;DHT22;17074;52.478;13.534;2022-07-22T00:05:43;22.10;99.90
30053;DHT22;17074;52.478;13.534;2022-07-22T00:08:08;22.10;99.90
30053;DHT22;17074;52.478;13.534;2022-07-22T00:10:34;22.00;99.90
30053;DHT22;17074;52.478;13.534;2022-07-22T00:13:00;22.00;99.90
30053;DHT22;17074;52.478;13.534;2022-07-22T00:15:25;22.00;99.90
30053;DHT22;17074;52.478;13.534;2022-07-22T00:17:51;21.90;99.90
30053;DHT22;17074;52.478;13.534;2022-07-22T00:20:16;21.90;99.90
30053;DHT22;17074;52.478;13.534;2022-07-22T00:22:42;21.90;99.90
30053;DHT22;17074;52.478;13.534;2022-07-22T00:25:08;21.90;99.90
30053;DHT22;17074;52.478;13.534;2022-07-22T00:27:34;21.90;99.90
30053;DHT22;17074;52.478;13.534;2022-07-22T00:29:59;21.90;99.90
30053;DHT22;17074;52.478;13.534;2022-07-22T00:32:25;21.90;99.90
30053;DHT22;17074;52.478;13.534;2022-07-22T00:34:50;21.90;99.90
30053;DHT22;17074;52.478;13.534;2022-07-22T00:37:16;21.90;99.90
30053;DHT22;17074;52.478;13.534;2022-07-22T00:39:42;21.90;99.90
30053;DHT22;17074;52.478;13.534;2022-07-22T00:42:07;22.00;99.90
30053;DHT22;17074;52.478;13.534;2022-07-22T00:44:33;21.90;99.90
30053;DHT22;17074;52.478;13.534;2022-07-22T00:46:58;21.90;99.90
30053;DHT22;17074;52.478;13.534;2022-07-22T00:49:24;21.90;99.90
30053;DHT22;17074;52.478;13.534;2022-07-22T00:51:50;21.90;99.90
30053;DHT22;17074;52.478;13.534;2022-07-22T00:54:16;21.90;99.90
30053;DHT22;17074;52.478;13.534;2022-07-22T00:56:42;21.90;99.90
30053;DHT22;17074;52.478;13.534;2022-07-22T00:59:10;21.90;99.90
30053;DHT22;17074;52.478;13.534;2022-07-22T01:01:36;21.90;99.90
30053;DHT22;17074;52.478;13.534;2022-07-22T01:04:02;21.80;99.90
30053;DHT22;17074;52.478;13.534;2022-07-22T01:06:29;21.80;99.90
30053;DHT22;17074;52.478;13.534;2022-07-22T01:08:56;21.90;99.90
30053;DHT22;17074;52.478;13.534;2022-07-22T01:11:22;21.80;99.90
30053;DHT22;17074;52.478;13.534;2022-07-22T01:13:48;21.80;99.90
30053;DHT22;17074;52.478;13.534;2022-07-22T01:16:15;21.80;99.90
30053;DHT22;17074;52.478;13.534;2022-07-22T01:18:42;21.80;99.90
30053;DHT22;17074;52.478;13.534;2022-07-22T01:21:09;21.80;99.90
30053;DHT22;17074;52.478;13.534;2022-07-22T01:23:35;21.80;99.90
30053;DHT22;17074;52.478;13.534;2022-07-22T01:26:02;21.80;99.90
30053;DHT22;17074;52.478;13.534;2022-07-22T01:28:27;21.80;99.90
30053;DHT22;17074;52.478;13.534;2022-07-22T01:30:53;21.80;99.90
30053;DHT22;17074;52.478;13.534;2022-07-22T01:33:20;21.80;99.90
30053;DHT22;17074;52.478;13.534;2022-07-22T01:35:46;21.70;99.90
30053;DHT22;17074;52.478;13.534;2022-07-22T01:38:13;21.70;99.90
30053;DHT22;17074;52.478;13.534;2022-07-22T01:40:39;21.70;99.90
30053;DHT22;17074;52.478;13.534;2022-07-22T01:43:05;21.70;99.90
30053;DHT22;17074;52.478;13.534;2022-07-22T01:45:31;21.70;99.90
30053;DHT22;17074;52.478;13.534;2022-07-22T01:47:57;21.70;99.90
30053;DHT22;17074;52.478;13.534;2022-07-22T01:50:23;21.60;99.90
30053;DHT22;17074;52.478;13.534;2022-07-22T01:52:49;21.60;99.90
30053;DHT22;17074;52.478;13.534;2022-07-22T01:55:15;21.60;99.90
30053;DHT22;17074;52.478;13.534;2022-07-22T01:57:40;21.60;99.90
30053;DHT22;17074;52.478;13.534;2022-07-22T02:00:07;21.60;99.90
30053;DHT22;17074;52.478;13.534;2022-07-22T02:02:33;21.50;99.90
30053;DHT22;17074;52.478;13.534;2022-07-22T02:04:59;21.50;99.90
30053;DHT22;17074;52.478;13.534;2022-07-22T02:07:25;21.50;99.90
30053;DHT22;17074;52.478;13.534;2022-07-22T02:09:52;21.50;99.90
30053;DHT22;17074;52.478;13.534;2022-07-22T02:12:18;21.40;99.90
30053;DHT22;17074;52.478;13.534;2022-07-22T02:14:44;21.50;99.90
30053;DHT22;17074;52.478;13.534;2022-07-22T02:17:10;21.40;99.90
30053;DHT22;17074;52.478;13.534;2022-07-22T02:19:36;21.40;99.90
30053;DHT22;17074;52.478;13.534;2022-07-22T02:25:24;21.50;99.90
30053;DHT22;17074;52.478;13.534;2022-07-22T02:27:50;21.40;99.90
30053;DHT22;17074;52.478;13.534;2022-07-22T02:30:15;21.40;99.90
30053;DHT22;17074;52.478;13.534;2022-07-22T02:32:41;21.50;99.90
30053;DHT22;17074;52.478;13.534;2022-07-22T02:35:07;21.50;99.90
30053;DHT22;17074;52.478;13.534;2022-07-22T02:37:33;21.50;99.90
30053;DHT22;17074;52.478;13.534;2022-07-22T02:39:58;21.40;99.90
30053;DHT22;17074;52.478;13.534;2022-07-22T02:42:24;21.40;99.90
30053;DHT22;17074;52.478;13.534;2022-07-22T02:44:50;21.40;99.90
30053;DHT22;17074;52.478;13.534;2022-07-22T02:47:15;21.30;99.90
30053;DHT22;17074;52.478;13.534;2022-07-22T02:49:41;21.30;99.90
30053;DHT22;17074;52.478;13.534;2022-07-22T02:52:06;21.30;99.90
30053;DHT22;17074;52.478;13.534;2022-07-22T02:54:32;21.30;99.90
30053;DHT22;17074;52.478;13.534;2022-07-22T02:56:57;21.30;99.90
30053;DHT22;17074;52.478;13.534;2022-07-22T02:59:23;21.20;99.90
30053;DHT22;17074;52.478;13.534;2022-07-22T03:01:49;21.20;99.90
30053;DHT22;17074;52.478;13.534;2022-07-22T03:04:14;21.20;99.90
30053;DHT22;17074;52.478;13.534;2022-07-22T03:06:40;21.10;99.90
30053;DHT22;17074;52.478;13.534;2022-07-22T03:09:05;21.10;99.90
30053;DHT22;17074;52.478;13.534;2022-07-22T03:11:31;21.00;99.90
30053;DHT22;17074;52.478;13.534;2022-07-22T03:13:57;21.00;99.90
30053;DHT22;17074;52.478;13.534;2022-07-22T03:16:22;21.00;99.90
30053;DHT22;17074;52.478;13.534;2022-07-22T03:18:48;21.00;99.90
30053;DHT22;17074;52.478;13.534;2022-07-22T03:21:14;21.00;99.90
30053;DHT22;17074;52.478;13.534;2022-07-22T03:23:40;21.00;99.90
30053;DHT22;17074;52.478;13.534;2022-07-22T03:26:06;21.00;99.90
30053;DHT22;17074;52.478;13.534;2022-07-22T03:28:32;21.00;99.90
30053;DHT22;17074;52.478;13.534;2022-07-22T03:30:57;20.90;99.90
30053;DHT22;17074;52.478;13.534;2022-07-22T03:33:23;20.90;99.90
30053;DHT22;17074;52.478;13.534;2022-07-22T03:35:49;20.90;99.90
30053;DHT22;17074;52.478;13.534;2022-07-22T03:38:14;20.80;99.90
30053;DHT22;17074;52.478;13.534;2022-07-22T03:40:40;20.90;99.90
30053;DHT22;17074;52.478;13.534;2022-07-22T03:43:06;20.90;99.90
30053;DHT22;17074;52.478;13.534;2022-07-22T03:45:31;21.00;99.90
30053;DHT22;17074;52.478;13.534;2022-07-22T03:47:57;21.10;99.90
30053;DHT22;17074;52.478;13.534;2022-07-22T03:50:26;21.10;99.90
30053;DHT22;17074;52.478;13.534;2022-07-22T03:52:51;21.10;99.90
30053;DHT22;17074;52.478;13.534;2022-07-22T03:55:17;21.10;99.90
30053;DHT22;17074;52.478;13.534;2022-07-22T03:57:42;21.10;99.90
30053;DHT22;17074;52.478;13.534;2022-07-22T04:00:08;21.10;99.90
30053;DHT22;17074;52.478;13.534;2022-07-22T04:02:34;21.20;99.90
30053;DHT22;17074;52.478;13.534;2022-07-22T04:05:00;21.20;99.90
30053;DHT22;17074;52.478;13.534;2022-07-22T04:07:25;21.30;99.90
30053;DHT22;17074;52.478;13.534;2022-07-22T04:09:51;21.30;99.90
30053;DHT22;17074;52.478;13.534;2022-07-22T04:12:16;21.40;99.90
30053;DHT22;17074;52.478;13.534;2022-07-22T04:14:42;21.50;99.90
30053;DHT22;17074;52.478;13.534;2022-07-22T04:17:07;21.70;99.90
30053;DHT22;17074;52.478;13.534;2022-07-22T04:19:33;21.70;99.90
30053;DHT22;17074;52.478;13.534;2022-07-22T04:21:59;21.80;99.90
30053;DHT22;17074;52.478;13.534;2022-07-22T04:24:24;22.00;99.90
30053;DHT22;17074;52.478;13.534;2022-07-22T04:26:50;22.20;99.90
30053;DHT22;17074;52.478;13.534;2022-07-22T04:29:16;22.40;99.90
30053;DHT22;17074;52.478;13.534;2022-07-22T04:31:41;22.80;99.90
30053;DHT22;17074;52.478;13.534;2022-07-22T04:34:07;23.00;99.90
30053;DHT22;17074;52.478;13.534;2022-07-22T04:36:32;23.30;99.90
30053;DHT22;17074;52.478;13.534;2022-07-22T04:38:58;23.40;99.90
30053;DHT22;17074;52.478;13.534;2022-07-22T04:41:24;23.40;99.90
30053;DHT22;17074;52.478;13.534;2022-07-22T04:43:49;23.40;99.90
30053;DHT22;17074;52.478;13.534;2022-07-22T04:46:15;23.50;99.90
30053;DHT22;17074;52.478;13.534;2022-07-22T04:48:40;23.60;99.90
30053;DHT22;17074;52.478;13.534;2022-07-22T04:51:06;23.50;99.90
30053;DHT22;17074;52.478;13.534;2022-07-22T04:53:32;23.40;99.90
30053;DHT22;17074;52.478;13.534;2022-07-22T04:55:57;23.30;99.90
30053;DHT22;17074;52.478;13.534;2022-07-22T04:58:23;23.20;99.90
30053;DHT22;17074;52.478;13.534;2022-07-22T05:00:49;23.00;99.90
30053;DHT22;17074;52.478;13.534;2022-07-22T05:03:17;23.00;99.90
30053;DHT22;17074;52.478;13.534;2022-07-22T05:05:43;22.90;99.90
30053;DHT22;17074;52.478;13.534;2022-07-22T05:08:09;22.70;99.90
30053;DHT22;17074;52.478;13.534;2022-07-22T05:10:34;22.70;99.90
30053;DHT22;17074;52.478;13.534;2022-07-22T05:13:01;22.60;99.90
30053;DHT22;17074;52.478;13.534;2022-07-22T05:15:27;22.50;99.90
30053;DHT22;17074;52.478;13.534;2022-07-22T05:17:52;22.50;99.90
30053;DHT22;17074;52.478;13.534;2022-07-22T05:20:18;22.40;99.90
30053;DHT22;17074;52.478;13.534;2022-07-22T05:22:43;22.40;99.90
30053;DHT22;17074;52.478;13.534;2022-07-22T05:25:10;22.40;99.90
30053;DHT22;17074;52.478;13.534;2022-07-22T05:27:36;22.40;99.90
30053;DHT22;17074;52.478;13.534;2022-07-22T05:30:03;22.40;99.90
30053;DHT22;17074;52.478;13.534;2022-07-22T05:32:28;22.40;99.90
30053;DHT22;17074;52.478;13.534;2022-07-22T05:34:54;22.40;99.90
30053;DHT22;17074;52.478;13.534;2022-07-22T05:37:20;22.40;99.90
30053;DHT22;17074;52.478;13.534;2022-07-22T05:39:45;22.40;99.90
30053;DHT22;17074;52.478;13.534;2022-07-22T05:42:11;22.50;99.90
30053;DHT22;17074;52.478;13.534;2022-07-22T05:44:37;22.60;99.90
30053;DHT22;17074;52.478;13.534;2022-07-22T05:47:02;22.60;99.90
30053;DHT22;17074;52.478;13.534;2022-07-22T05:52:48;22.80;99.90
30053;DHT22;17074;52.478;13.534;2022-07-22T05:55:14;22.90;99.90
30053;DHT22;17074;52.478;13.534;2022-07-22T05:57:40;23.00;99.90
30053;DHT22;17074;52.478;13.534;2022-07-22T06:00:06;23.10;99.90
30053;DHT22;17074;52.478;13.534;2022-07-22T06:02:59;23.20;99.90
30053;DHT22;17074;52.478;13.534;2022-07-22T06:05:25;23.30;99.90
30053;DHT22;17074;52.478;13.534;2022-07-22T06:07:51;23.30;99.90
30053;DHT22;17074;52.478;13.534;2022-07-22T06:10:16;23.40;99.90
30053;DHT22;17074;52.478;13.534;2022-07-22T06:12:42;23.40;99.90
30053;DHT22;17074;52.478;13.534;2022-07-22T06:15:08;23.40;99.90
30053;DHT22;17074;52.478;13.534;2022-07-22T06:17:34;23.40;99.90
30053;DHT22;17074;52.478;13.534;2022-07-22T06:20:00;23.40;99.90
30053;DHT22;17074;52.478;13.534;2022-07-22T06:22:25;23.50;99.90
30053;DHT22;17074;52.478;13.534;2022-07-22T06:24:51;23.50;99.90
30053;DHT22;17074;52.478;13.534;2022-07-22T06:27:17;23.50;99.90
30053;DHT22;17074;52.478;13.534;2022-07-22T06:29:42;23.50;99.90
30053;DHT22;17074;52.478;13.534;2022-07-22T06:32:08;23.60;99.90
30053;DHT22;17074;52.478;13.534;2022-07-22T06:34:34;23.70;99.90
30053;DHT22;17074;52.478;13.534;2022-07-22T06:36:59;23.90;99.90
30053;DHT22;17074;52.478;13.534;2022-07-22T06:39:25;24.20;99.90
30053;DHT22;17074;52.478;13.534;2022-07-22T06:41:51;24.40;99.90
30053;DHT22;17074;52.478;13.534;2022-07-22T06:44:16;24.70;99.90
30053;DHT22;17074;52.478;13.534;2022-07-22T06:46:42;24.90;99.90
30053;DHT22;17074;52.478;13.534;2022-07-22T06:49:08;25.00;99.90
30053;DHT22;17074;52.478;13.534;2022-07-22T06:51:34;25.30;99.90
30053;DHT22;17074;52.478;13.534;2022-07-22T06:54:00;25.60;99.90
30053;DHT22;17074;52.478;13.534;2022-07-22T06:56:25;25.90;99.90
30053;DHT22;17074;52.478;13.534;2022-07-22T06:58:51;25.90;99.90
30053;DHT22;17074;52.478;13.534;2022-07-22T07:01:17;26.10;99.90
30053;DHT22;17074;52.478;13.534;2022-07-22T07:03:42;26.20;99.90
30053;DHT22;17074;52.478;13.534;2022-07-22T07:06:09;26.30;99.90
30053;DHT22;17074;52.478;13.534;2022-07-22T07:08:37;26.70;99.90
30053;DHT22;17074;52.478;13.534;2022-07-22T07:11:03;26.90;99.90
30053;DHT22;17074;52.478;13.534;2022-07-22T07:13:29;27.00;99.90
30053;DHT22;17074;52.478;13.534;2022-07-22T07:15:55;27.10;99.90
30053;DHT22;17074;52.478;13.534;2022-07-22T07:18:20;27.10;99.90
30053;DHT22;17074;52.478;13.534;2022-07-22T07:20:46;26.90;99.90
30053;DHT22;17074;52.478;13.534;2022-07-22T07:23:12;26.80;99.90
30053;DHT22;17074;52.478;13.534;2022-07-22T07:25:38;26.80;99.90
30053;DHT22;17074;52.478;13.534;2022-07-22T07:28:04;26.70;99.90
30053;DHT22;17074;52.478;13.534;2022-07-22T07:33:51;26.80;99.90
30053;DHT22;17074;52.478;13.534;2022-07-22T07:36:19;27.00;99.90
30053;DHT22;17074;52.478;13.534;2022-07-22T07:38:44;27.10;99.90
30053;DHT22;17074;52.478;13.534;2022-07-22T07:41:11;27.10;99.90
30053;DHT22;17074;52.478;13.534;2022-07-22T07:43:37;27.00;99.90
30053;DHT22;17074;52.478;13.534;2022-07-22T07:46:03;27.00;99.90
30053;DHT22;17074;52.478;13.534;2022-07-22T07:48:29;27.00;99.90
30053;DHT22;17074;52.478;13.534;2022-07-22T07:50:54;26.90;99.90
30053;DHT22;17074;52.478;13.534;2022-07-22T07:53:20;27.10;99.90
30053;DHT22;17074;52.478;13.534;2022-07-22T07:55:46;27.30;99.90
30053;DHT22;17074;52.478;13.534;2022-07-22T07:58:11;27.70;99.90
30053;DHT22;17074;52.478;13.534;2022-07-22T08:00:37;28.10;99.90
30053;DHT22;17074;52.478;13.534;2022-07-22T08:03:05;28.40;99.90
30053;DHT22;17074;52.478;13.534;2022-07-22T08:05:31;28.40;99.90
30053;DHT22;17074;52.478;13.534;2022-07-22T08:07:57;28.20;99.90
30053;DHT22;17074;52.478;13.534;2022-07-22T08:10:23;28.00;99.90
30053;DHT22;17074;52.478;13.534;2022-07-22T08:12:49;27.70;99.90
30053;DHT22;17074;52.478;13.534;2022-07-22T08:15:14;27.60;99.90
30053;DHT22;17074;52.478;13.534;2022-07-22T08:17:40;27.80;99.90
30053;DHT22;17074;52.478;13.534;2022-07-22T08:20:07;27.90;99.90
30053;DHT22;17074;52.478;13.534;2022-07-22T08:22:33;27.90;99.90
30053;DHT22;17074;52.478;13.534;2022-07-22T08:24:59;28.30;99.90
30053;DHT22;17074;52.478;13.534;2022-07-22T08:27:25;28.60;99.90
30053;DHT22;17074;52.478;13.534;2022-07-22T08:29:50;28.80;99.90
30053;DHT22;17074;52.478;13.534;2022-07-22T08:32:16;28.70;99.90
30053;DHT22;17074;52.478;13.534;2022-07-22T08:34:42;28.60;99.90
30053;DHT22;17074;52.478;13.534;2022-07-22T08:37:07;28.80;99.90
30053;DHT22;17074;52.478;13.534;2022-07-22T08:39:33;29.10;99.90
30053;DHT22;17074;52.478;13.534;2022-07-22T08:42:00;29.60;99.90
30053;DHT22;17074;52.478;13.534;2022-07-22T08:44:29;30.10;99.90
30053;DHT22;17074;52.478;13.534;2022-07-22T08:46:55;30.10;99.90
30053;DHT22;17074;52.478;13.534;2022-07-22T08:49:21;30.10;99.90
30053;DHT22;17074;52.478;13.534;2022-07-22T08:51:46;29.90;99.90
30053;DHT22;17074;52.478;13.534;2022-07-22T08:54:12;29.50;99.90
30053;DHT22;17074;52.478;13.534;2022-07-22T08:56:38;29.50;99.90
30053;DHT22;17074;52.478;13.534;2022-07-22T08:59:04;29.30;99.90
30053;DHT22;17074;52.478;13.534;2022-07-22T09:01:30;29.20;99.90
30053;DHT22;17074;52.478;13.534;2022-07-22T09:03:56;29.30;99.90
30053;DHT22;17074;52.478;13.534;2022-07-22T09:06:24;29.20;99.90
30053;DHT22;17074;52.478;13.534;2022-07-22T09:08:56;29.00;99.90
30053;DHT22;17074;52.478;13.534;2022-07-22T09:11:24;28.60;99.90
30053;DHT22;17074;52.478;13.534;2022-07-22T09:13:50;28.10;99.90
30053;DHT22;17074;52.478;13.534;2022-07-22T09:16:16;27.70;99.90
30053;DHT22;17074;52.478;13.534;2022-07-22T09:18:50;27.30;99.90
30053;DHT22;17074;52.478;13.534;2022-07-22T09:21:17;27.10;99.90
30053;DHT22;17074;52.478;13.534;2022-07-22T09:23:42;26.90;99.90
30053;DHT22;17074;52.478;13.534;2022-07-22T09:26:09;26.80;99.90
30053;DHT22;17074;52.478;13.534;2022-07-22T09:28:55;26.70;99.90
30053;DHT22;17074;52.478;13.534;2022-07-22T09:31:26;26.70;99.90
30053;DHT22;17074;52.478;13.534;2022-07-22T09:33:52;26.70;99.90
30053;DHT22;17074;52.478;13.534;2022-07-22T09:36:19;26.70;99.90
30053;DHT22;17074;52.478;13.534;2022-07-22T09:38:45;26.90;99.90
30053;DHT22;17074;52.478;13.534;2022-07-22T09:41:11;27.00;99.90
30053;DHT22;17074;52.478;13.534;2022-07-22T09:43:37;27.20;99.90
30053;DHT22;17074;52.478;13.534;2022-07-22T09:46:03;27.50;99.90
30053;DHT22;17074;52.478;13.534;2022-07-22T09:48:30;27.90;99.90
30053;DHT22;17074;52.478;13.534;2022-07-22T09:50:56;28.20;99.90
30053;DHT22;17074;52.478;13.534;2022-07-22T09:53:24;28.20;99.90
30053;DHT22;17074;52.478;13.534;2022-07-22T09:55:50;27.90;99.90
30053;DHT22;17074;52.478;13.534;2022-07-22T09:58:19;27.50;99.90
30053;DHT22;17074;52.478;13.534;2022-07-22T10:00:45;27.20;99.90
30053;DHT22;17074;52.478;13.534;2022-07-22T10:03:17;26.80;99.90
30053;DHT22;17074;52.478;13.534;2022-07-22T10:05:44;26.50;99.90
30053;DHT22;17074;52.478;13.534;2022-07-22T10:08:10;26.30;99.90
30053;DHT22;17074;52.478;13.534;2022-07-22T10:10:37;26.20;99.90
30053;DHT22;17074;52.478;13.534;2022-07-22T10:13:05;26.20;99.90
30053;DHT22;17074;52.478;13.534;2022-07-22T10:15:32;26.40;99.90
30053;DHT22;17074;52.478;13.534;2022-07-22T10:18:00;26.70;99.90
30053;DHT22;17074;52.478;13.534;2022-07-22T10:20:28;27.00;99.90
30053;DHT22;17074;52.478;13.534;2022-07-22T10:23:02;27.30;99.90
30053;DHT22;17074;52.478;13.534;2022-07-22T10:25:30;27.50;99.90
30053;DHT22;17074;52.478;13.534;2022-07-22T10:28:04;27.80;99.90
30053;DHT22;17074;52.478;13.534;2022-07-22T10:30:31;28.10;99.90
30053;DHT22;17074;52.478;13.534;2022-07-22T10:33:29;28.20;99.90
30053;DHT22;17074;52.478;13.534;2022-07-22T10:35:58;28.20;99.90
30053;DHT22;17074;52.478;13.534;2022-07-22T10:38:25;28.10;99.90
30053;DHT22;17074;52.478;13.534;2022-07-22T10:43:31;28.40;99.90
30053;DHT22;17074;52.478;13.534;2022-07-22T10:45:58;28.60;99.90
30053;DHT22;17074;52.478;13.534;2022-07-22T10:51:22;28.90;99.90
30053;DHT22;17074;52.478;13.534;2022-07-22T10:53:57;29.10;99.90
30053;DHT22;17074;52.478;13.534;2022-07-22T10:56:32;29.30;99.90
30053;DHT22;17074;52.478;13.534;2022-07-22T10:59:10;29.20;99.90
30053;DHT22;17074;52.478;13.534;2022-07-22T11:01:38;29.10;99.90
30053;DHT22;17074;52.478;13.534;2022-07-22T11:04:25;28.80;99.90
30053;DHT22;17074;52.478;13.534;2022-07-22T11:06:53;28.70;99.90
30053;DHT22;17074;52.478;13.534;2022-07-22T11:09:22;28.40;99.90
30053;DHT22;17074;52.478;13.534;2022-07-22T11:11:50;28.30;99.90
30053;DHT22;17074;52.478;13.534;2022-07-22T11:14:31;28.10;99.90
30053;DHT22;17074;52.478;13.534;2022-07-22T11:16:59;28.20;99.90
30053;DHT22;17074;52.478;13.534;2022-07-22T11:19:31;28.50;99.90
30053;DHT22;17074;52.478;13.534;2022-07-22T11:22:07;28.60;99.90
30053;DHT22;17074;52.478;13.534;2022-07-22T11:24:34;28.50;99.90
30053;DHT22;17074;52.478;13.534;2022-07-22T11:27:01;28.40;99.90
30053;DHT22;17074;52.478;13.534;2022-07-22T11:29:36;28.40;99.90
30053;DHT22;17074;52.478;13.534;2022-07-22T11:32:06;28.60;99.90
30053;DHT22;17074;52.478;13.534;2022-07-22T11:34:34;28.70;99.90
30053;DHT22;17074;52.478;13.534;2022-07-22T11:37:00;28.60;99.90
30053;DHT22;17074;52.478;13.534;2022-07-22T11:39:28;28.20;99.90
30053;DHT22;17074;52.478;13.534;2022-07-22T11:41:56;27.80;99.90
30053;DHT22;17074;52.478;13.534;2022-07-22T11:44:24;27.60;99.90
30053;DHT22;17074;52.478;13.534;2022-07-22T11:46:50;27.50;99.90
30053;DHT22;17074;52.478;13.534;2022-07-22T11:49:18;27.60;99.90
30053;DHT22;17074;52.478;13.534;2022-07-22T11:51:44;27.80;99.90
30053;DHT22;17074;52.478;13.534;2022-07-22T11:54:10;28.10;99.90
30053;DHT22;17074;52.478;13.534;2022-07-22T11:56:36;28.50;99.90
30053;DHT22;17074;52.478;13.534;2022-07-22T11:59:04;28.70;99.90
30053;DHT22;17074;52.478;13.534;2022-07-22T12:01:34;28.70;99.90
30053;DHT22;17074;52.478;13.534;2022-07-22T12:04:08;28.30;99.90
30053;DHT22;17074;52.478;13.534;2022-07-22T12:06:38;28.40;99.90
30053;DHT22;17074;52.478;13.534;2022-07-22T12:09:13;28.50;99.90
30053;DHT22;17074;52.478;13.534;2022-07-22T12:11:41;28.50;99.90
30053;DHT22;17074;52.478;13.534;2022-07-22T12:14:17;28.40;99.90
30053;DHT22;17074;52.478;13.534;2022-07-22T12:16:53;28.20;99.90
30053;DHT22;17074;52.478;13.534;2022-07-22T12:19:19;28.20;99.90
30053;DHT22;17074;52.478;13.534;2022-07-22T12:22:04;28.10;99.90
30053;DHT22;17074;52.478;13.534;2022-07-22T12:24:34;28.00;99.90
30053;DHT22;17074;52.478;13.534;2022-07-22T12:27:06;28.20;99.90
30053;DHT22;17074;52.478;13.534;2022-07-22T12:34:42;28.30;99.90
30053;DHT22;17074;52.478;13.534;2022-07-22T12:37:19;28.20;99.90
30053;DHT22;17074;52.478;13.534;2022-07-22T12:42:21;28.30;99.90
30053;DHT22;17074;52.478;13.534;2022-07-22T12:45:00;28.30;99.90
30053;DHT22;17074;52.478;13.534;2022-07-22T12:50:36;28.50;99.90
30053;DHT22;17074;52.478;13.534;2022-07-22T12:53:11;28.40;99.90
30053;DHT22;17074;52.478;13.534;2022-07-22T12:55:54;28.30;99.90
30053;DHT22;17074;52.478;13.534;2022-07-22T12:58:25;28.40;99.90
30053;DHT22;17074;52.478;13.534;2022-07-22T13:00:53;28.40;99.90
30053;DHT22;17074;52.478;13.534;2022-07-22T13:03:21;28.30;99.90
30053;DHT22;17074;52.478;13.534;2022-07-22T13:05:56;28.10;99.90
30053;DHT22;17074;52.478;13.534;2022-07-22T13:08:23;27.80;99.90
30053;DHT22;17074;52.478;13.534;2022-07-22T13:10:50;27.60;99.90
30053;DHT22;17074;52.478;13.534;2022-07-22T13:13:16;27.60;99.90
30053;DHT22;17074;52.478;13.534;2022-07-22T13:15:42;27.70;99.90
30053;DHT22;17074;52.478;13.534;2022-07-22T13:18:07;27.80;99.90
30053;DHT22;17074;52.478;13.534;2022-07-22T13:20:33;27.80;99.90
30053;DHT22;17074;52.478;13.534;2022-07-22T13:22:59;27.60;99.90
30053;DHT22;17074;52.478;13.534;2022-07-22T13:25:25;27.50;99.90
30053;DHT22;17074;52.478;13.534;2022-07-22T13:27:52;27.40;99.90
30053;DHT22;17074;52.478;13.534;2022-07-22T13:30:18;27.20;99.90
30053;DHT22;17074;52.478;13.534;2022-07-22T13:32:44;27.30;99.90
30053;DHT22;17074;52.478;13.534;2022-07-22T13:35:09;27.30;99.90
30053;DHT22;17074;52.478;13.534;2022-07-22T13:37:35;27.40;99.90
30053;DHT22;17074;52.478;13.534;2022-07-22T13:40:01;27.40;99.90
30053;DHT22;17074;52.478;13.534;2022-07-22T13:42:27;27.40;99.90
30053;DHT22;17074;52.478;13.534;2022-07-22T13:44:53;27.40;99.90
30053;DHT22;17074;52.478;13.534;2022-07-22T13:47:20;27.30;99.90
30053;DHT22;17074;52.478;13.534;2022-07-22T13:49:46;27.10;99.90
30053;DHT22;17074;52.478;13.534;2022-07-22T13:52:12;27.10;99.90
30053;DHT22;17074;52.478;13.534;2022-07-22T13:54:38;27.00;99.90
30053;DHT22;17074;52.478;13.534;2022-07-22T13:57:04;27.10;99.90
30053;DHT22;17074;52.478;13.534;2022-07-22T13:59:30;27.10;99.90
30053;DHT22;17074;52.478;13.534;2022-07-22T14:01:59;27.10;99.90
30053;DHT22;17074;52.478;13.534;2022-07-22T14:04:25;27.40;99.90
30053;DHT22;17074;52.478;13.534;2022-07-22T14:06:51;27.40;99.90
30053;DHT22;17074;52.478;13.534;2022-07-22T14:09:17;27.20;99.90
30053;DHT22;17074;52.478;13.534;2022-07-22T14:11:42;27.20;99.90
30053;DHT22;17074;52.478;13.534;2022-07-22T14:14:08;27.10;99.90
30053;DHT22;17074;52.478;13.534;2022-07-22T14:16:35;26.80;99.90
30053;DHT22;17074;52.478;13.534;2022-07-22T14:19:12;26.70;99.90
30053;DHT22;17074;52.478;13.534;2022-07-22T14:21:39;26.70;99.90
30053;DHT22;17074;52.478;13.534;2022-07-22T14:24:06;26.60;99.90
30053;DHT22;17074;52.478;13.534;2022-07-22T14:26:33;26.50;99.90
30053;DHT22;17074;52.478;13.534;2022-07-22T14:28:59;26.50;99.90
30053;DHT22;17074;52.478;13.534;2022-07-22T14:31:25;26.50;99.90
30053;DHT22;17074;52.478;13.534;2022-07-22T14:33:51;26.50;99.90
30053;DHT22;17074;52.478;13.534;2022-07-22T14:36:17;26.40;99.90
30053;DHT22;17074;52.478;13.534;2022-07-22T14:38:43;26.40;99.90
30053;DHT22;17074;52.478;13.534;2022-07-22T14:41:09;26.60;99.90
30053;DHT22;17074;52.478;13.534;2022-07-22T14:43:35;26.50;99.90
30053;DHT22;17074;52.478;13.534;2022-07-22T14:46:02;26.30;99.90
30053;DHT22;17074;52.478;13.534;2022-07-22T14:48:30;26.20;99.90
30053;DHT22;17074;52.478;13.534;2022-07-22T14:50:57;26.30;99.90
30053;DHT22;17074;52.478;13.534;2022-07-22T14:53:22;26.30;99.90
30053;DHT22;17074;52.478;13.534;2022-07-22T14:55:49;26.30;99.90
30053;DHT22;17074;52.478;13.534;2022-07-22T14:58:15;26.40;99.90
30053;DHT22;17074;52.478;13.534;2022-07-22T15:00:40;26.30;99.90
30053;DHT22;17074;52.478;13.534;2022-07-22T15:03:06;26.30;99.90
30053;DHT22;17074;52.478;13.534;2022-07-22T15:05:32;26.20;99.90
30053;DHT22;17074;52.478;13.534;2022-07-22T15:07:57;26.00;99.90
30053;DHT22;17074;52.478;13.534;2022-07-22T15:10:23;26.10;99.90
30053;DHT22;17074;52.478;13.534;2022-07-22T15:12:49;26.10;99.90
30053;DHT22;17074;52.478;13.534;2022-07-22T15:15:14;26.20;99.90
30053;DHT22;17074;52.478;13.534;2022-07-22T15:17:40;26.20;99.90
30053;DHT22;17074;52.478;13.534;2022-07-22T15:20:07;26.20;99.90
30053;DHT22;17074;52.478;13.534;2022-07-22T15:22:33;26.30;99.90
30053;DHT22;17074;52.478;13.534;2022-07-22T15:24:59;26.30;99.90
30053;DHT22;17074;52.478;13.534;2022-07-22T15:27:25;26.20;99.90
30053;DHT22;17074;52.478;13.534;2022-07-22T15:29:51;26.20;99.90
30053;DHT22;17074;52.478;13.534;2022-07-22T15:32:17;26.30;99.90
30053;DHT22;17074;52.478;13.534;2022-07-22T15:34:43;26.20;99.90
30053;DHT22;17074;52.478;13.534;2022-07-22T15:37:09;26.20;99.90
30053;DHT22;17074;52.478;13.534;2022-07-22T15:39:34;26.10;99.90